Latest Weather Observations for Melbourne Airport

IDV60801

Issued at 12:02 pm EST Tuesday 1 September 2015 (issued every 30 minutes, with the page automatically refreshed every 10 minutes)

About weather observations | Map of weather stations | Latest weather observations for VIC | Other Formats
Station Details ID: 086282 Name: MELBOURNE AIRPORT Lat: -37.67 Lon: 144.83 Height: 113.4 m
Data from the previous 72 hours. | See also: Recent months at Melbourne Airport
Date/Time
EST
Temp
°C
App
Temp
°C
Dew
Point
Rel
Hum
%
Delta-T
°C
Wind Press
QNH
hPa
Press
MSL
hPa
Rain
since 9 am
mm
Dir
 
Spd
km/h
Gust
km/h
Spd
kts
Gust
kts
01/11:30am 12.5 9.0 3.3 53 4.1 N 11 20 6 11 1016.9 1017.0 0.0
01/11:00am 11.1 6.6 2.3 54 3.8 N 15 24 8 13 1017.1 1017.2 0.0
01/10:30am 10.9 6.9 2.9 58 3.5 NNE 13 22 7 12 1017.1 1017.2 0.0
01/10:00am 9.9 6.6 2.7 61 3.1 NNE 9 11 5 6 1017.3 1017.4 0.0
01/09:30am 9.5 6.3 3.0 64 2.8 N 9 13 5 7 1017.4 1017.6 0.0
01/09:00am 8.2 5.0 3.0 70 2.2 N 9 13 5 7 1017.4 1017.6 0.0
01/08:30am 6.4 2.3 2.5 76 1.6 N 13 15 7 8 1017.3 1017.5 0.0
01/08:00am 5.2 1.7 1.4 76 1.5 N 9 13 5 7 1017.4 1017.6 0.0
01/07:30am 3.3 -1.4 1.2 86 0.8 N 15 19 8 10 1017.0 1017.2 0.0
01/07:00am 1.8 -2.6 0.5 91 0.5 N 13 15 7 8 1016.9 1017.1 0.0
01/06:30am 2.9 -0.6 1.3 89 0.6 N 9 13 5 7 1016.7 1016.9 0.0
01/06:00am 2.2 0.4 0.9 91 0.5 CALM 0 0 0 0 1016.5 1016.7 0.0
01/05:30am 2.9 1.1 1.3 89 0.6 CALM 0 0 0 0 1016.6 1016.8 0.0
01/05:00am 3.7 2.0 1.9 88 0.7 CALM 0 0 0 0 1016.7 1016.9 0.0
01/04:30am 6.1 4.5 2.5 78 1.5 CALM 0 0 0 0 1016.7 1016.9 0.0
01/04:00am 6.3 4.0 2.9 79 1.4 SW 4 9 2 5 1016.9 1017.1 0.0
01/03:30am 6.7 4.1 3.1 78 1.5 WSW 6 7 3 4 1017.1 1017.3 0.0
01/03:00am 7.1 4.8 2.8 74 1.8 WNW 4 11 2 6 1017.4 1017.6 0.0
01/02:30am 6.7 3.6 3.7 81 1.3 W 9 11 5 6 1017.6 1017.8 0.0
01/02:00am 7.0 4.5 3.5 78 1.5 W 6 9 3 5 1018.2 1018.3 0.0
01/01:30am 7.3 4.3 4.1 80 1.4 W 9 9 5 5 1018.5 1018.6 0.0
01/01:00am 7.9 4.5 4.0 76 1.7 W 11 13 6 7 1018.5 1018.6 0.0
01/12:30am 8.3 5.8 3.7 73 2.0 SW 6 9 3 5 1018.7 1018.8 0.0
01/12:00am 8.8 6.0 3.0 67 2.5 SW 7 9 4 5 1018.5 1018.6 0.0
 
Date/Time
EST
Temp
°C
App
Temp
°C
Dew
Point
Rel
Hum
%
Delta-T
°C
Wind Press
QNH
hPa
Press
MSL
hPa
Rain
since 9 am
mm
Dir
 
Spd
km/h
Gust
km/h
Spd
kts
Gust
kts
31/11:30pm 9.1 5.9 2.8 64 2.7 S 9 9 5 5 1018.6 1018.7 0.0
31/11:00pm 9.1 5.9 3.3 67 2.5 SSE 9 13 5 7 1018.9 1019.0 0.0
31/10:30pm 9.1 6.4 3.6 68 2.4 S 7 9 4 5 1018.8 1018.9 0.0
31/10:00pm 9.1 6.1 4.1 71 2.2 S 9 13 5 7 1019.0 1019.1 0.0
31/09:30pm 9.2 6.2 4.2 71 2.2 S 9 11 5 6 1019.1 1019.2 0.0
31/09:00pm 9.3 6.3 4.1 70 2.3 SSE 9 11 5 6 1019.3 1019.4 0.0
31/08:30pm 9.2 5.8 4.2 71 2.2 SSE 11 17 6 9 1019.2 1019.3 0.0
31/08:00pm 9.2 6.2 4.2 71 2.2 S 9 11 5 6 1019.2 1019.3 0.0
31/07:30pm 9.3 5.9 3.8 68 2.4 S 11 13 6 7 1019.0 1019.1 0.0
31/07:00pm 9.2 4.7 4.0 70 2.3 SSE 17 20 9 11 1018.8 1018.9 0.0
31/06:30pm 9.5 4.9 3.5 66 2.6 SSE 17 19 9 10 1018.8 1018.9 0.0
31/06:00pm 9.7 5.2 4.0 67 2.5 S 17 19 9 10 1018.9 1019.0 0.0
31/05:30pm 10.0 5.4 3.9 66 2.7 SSE 17 20 9 11 1018.8 1018.9 0.0
31/05:00pm 10.3 5.8 4.0 65 2.8 SSE 17 20 9 11 1018.8 1018.9 0.0
31/04:30pm 10.5 5.5 3.4 61 3.1 SSE 19 24 10 13 1018.9 1019.0 0.0
31/04:00pm 10.9 5.8 3.1 58 3.4 S 19 26 10 14 1018.8 1018.9 0.0
31/03:30pm 11.6 7.3 3.2 56 3.7 SSW 15 24 8 13 1018.7 1018.8 0.0
31/03:00pm 12.0 6.7 3.2 55 3.9 S 20 30 11 16 1018.7 1018.8 0.0
31/02:30pm 11.5 6.3 2.2 53 4.0 S 19 26 10 14 1019.0 1019.1 0.0
31/02:00pm 12.6 8.5 2.3 49 4.5 S 13 20 7 11 1019.0 1019.1 0.0
31/01:30pm 11.4 6.8 1.5 50 4.2 SSW 15 19 8 10 1019.2 1019.3 0.0
31/01:00pm 11.0 6.8 1.5 52 4.0 S 13 19 7 10 1019.6 1019.7 0.0
31/12:30pm 11.2 6.7 2.1 53 3.9 S 15 20 8 11 1020.1 1020.2 0.0
31/12:00pm 10.5 6.4 2.3 57 3.5 S 13 19 7 10 1020.6 1020.7 0.0
31/11:30am 10.2 5.0 2.2 57 3.4 SSE 19 24 10 13 1020.9 1021.0 0.0
31/11:00am 10.0 5.1 2.2 58 3.3 S 17 26 9 14 1020.9 1021.0 0.0
31/10:30am 9.8 4.9 1.7 57 3.4 S 17 22 9 12 1021.0 1021.1 0.0
31/10:00am 9.5 4.5 1.3 56 3.4 S 17 26 9 14 1021.1 1021.2 0.0
31/09:30am 9.5 6.2 2.4 61 3.0 SSW 9 13 5 7 1021.3 1021.4 0.0
31/09:00am 9.0 5.1 3.2 67 2.5 WSW 13 19 7 10 1021.3 1021.4 0.0
31/08:30am 7.8 4.5 4.4 79 1.5 W 11 13 6 7 1021.3 1021.4 0.0
31/08:00am 7.3 4.4 4.8 84 1.1 WSW 9 11 5 6 1021.3 1021.4 0.0
31/07:30am 6.8 4.4 5.2 89 0.7 WSW 7 9 4 5 1021.1 1021.2 0.0
31/07:00am 6.5 3.7 5.1 91 0.6 WSW 9 11 5 6 1021.0 1021.1 0.0
31/06:30am 6.5 3.3 5.1 91 0.6 WSW 11 15 6 8 1020.9 1021.0 0.0
31/06:00am 6.6 3.0 5.2 91 0.6 WSW 13 15 7 8 1021.0 1021.1 0.0
31/05:30am 6.7 2.4 5.1 89 0.7 WSW 17 20 9 11 1020.9 1021.0 0.0
31/05:00am 6.7 3.1 4.9 88 0.8 WSW 13 17 7 9 1020.9 1021.0 0.0
31/04:30am 6.7 3.1 5.1 89 0.7 WSW 13 17 7 9 1020.8 1020.9 0.0
31/04:00am 6.7 3.1 5.1 89 0.7 W 13 15 7 8 1020.9 1021.0 0.0
31/03:30am 6.6 3.0 5.0 89 0.7 W 13 15 7 8 1020.8 1020.9 0.0
31/03:00am 6.5 3.4 5.4 93 0.5 W 11 13 6 7 1021.1 1021.2 0.0
31/02:30am 6.7 4.4 5.6 93 0.5 SSW 7 11 4 6 1021.5 1021.6 0.0
31/02:00am 7.1 3.1 4.8 85 1.0 SSW 15 24 8 13 1022.0 1022.2 0.0
31/01:30am 7.6 3.8 4.1 78 1.5 SW 13 17 7 9 1022.1 1022.3 0.0
31/01:00am 7.6 4.7 4.9 83 1.2 WSW 9 13 5 7 1022.3 1022.5 0.0
31/12:30am 7.6 5.2 5.4 86 1.0 W 7 11 4 6 1022.4 1022.6 0.0
31/12:00am 7.9 5.1 5.2 83 1.2 WSW 9 11 5 6 1022.7 1022.9 0.0
 
Date/Time
EST
Temp
°C
App
Temp
°C
Dew
Point
Rel
Hum
%
Delta-T
°C
Wind Press
QNH
hPa
Press
MSL
hPa
Rain
since 9 am
mm
Dir
 
Spd
km/h
Gust
km/h
Spd
kts
Gust
kts
30/11:30pm 7.9 5.1 5.0 82 1.3 WSW 9 11 5 6 1023.0 1023.2 0.0
30/11:00pm 7.9 5.5 5.2 83 1.2 SW 7 11 4 6 1023.1 1023.3 0.0
30/10:30pm 8.0 5.5 4.8 80 1.4 SSW 7 9 4 5 1023.4 1023.6 0.0
30/10:00pm 8.3 5.4 4.7 78 1.6 SSW 9 13 5 7 1023.6 1023.8 0.0
30/09:30pm 8.3 5.4 4.9 79 1.5 SSW 9 11 5 6 1023.8 1024.0 0.0
30/09:00pm 8.4 5.1 4.8 78 1.6 SSW 11 15 6 8 1023.9 1024.1 0.0
30/08:30pm 8.8 4.7 4.5 74 1.9 S 15 22 8 12 1023.8 1024.0 0.0
30/08:00pm 8.2 5.3 4.8 79 1.5 SW 9 9 5 5 1023.7 1023.9 0.0
30/07:30pm 8.3 5.4 4.4 76 1.7 S 9 11 5 6 1023.5 1023.7 0.0
30/07:00pm 8.1 4.4 4.2 76 1.7 SSE 13 17 7 9 1023.5 1023.7 0.0
30/06:30pm 7.9 4.2 4.5 79 1.5 S 13 17 7 9 1023.5 1023.7 0.0
30/06:00pm 9.1 5.1 5.1 76 1.8 S 15 22 8 12 1023.2 1023.4 0.0
30/05:30pm 9.4 5.0 4.7 72 2.1 S 17 24 9 13 1023.0 1023.2 0.0
30/05:00pm 9.7 4.9 4.5 70 2.3 SSE 19 24 10 13 1023.0 1023.2 0.0
30/04:30pm 9.7 5.3 4.5 70 2.3 S 17 24 9 13 1023.0 1023.2 0.0
30/04:00pm 9.9 4.9 4.5 69 2.4 S 20 26 11 14 1023.1 1023.3 0.0
30/03:30pm 10.8 5.8 4.6 65 2.8 S 20 28 11 15 1023.2 1023.4 0.0
30/03:00pm 11.4 6.1 4.8 64 3.0 SSW 22 28 12 15 1023.1 1023.3 0.0
30/02:30pm 11.3 6.5 4.7 64 3.0 S 19 26 10 14 1023.2 1023.4 0.0
30/02:00pm 11.4 6.6 5.8 68 2.6 S 20 26 11 14 1023.3 1023.5 0.0
30/01:30pm 10.6 5.7 5.1 69 2.5 S 20 28 11 15 1023.5 1023.7 0.0
30/01:00pm 10.7 6.1 5.5 70 2.4 S 19 26 10 14 1023.7 1023.9 0.0
30/12:30pm 10.9 5.5 4.7 65 2.8 SW 22 28 12 15 1024.1 1024.3 0.0
30/12:00pm 11.3 6.8 4.2 61 3.2 S 17 24 9 13 1024.4 1024.6 0.0
30/11:30am 10.2 5.9 5.1 70 2.3 SSW 17 26 9 14 1024.8 1025.0 0.0
30/11:00am 10.1 5.4 5.0 70 2.3 SSW 19 26 10 14 1025.0 1025.2 0.0
30/10:30am 10.1 5.9 5.7 74 2.0 SSW 17 26 9 14 1025.1 1025.3 0.0
30/10:00am 9.6 5.2 6.6 81 1.4 SW 19 24 10 13 1025.3 1025.5 0.0
30/09:30am 9.1 4.5 6.5 84 1.2 SW 20 28 11 15 1025.4 1025.6 0.0
30/09:00am 8.6 3.9 6.2 85 1.1 SW 20 28 11 15 1025.5 1025.7 2.4
30/08:30am 7.9 3.7 5.7 86 1.0 SW 17 24 9 13 1025.6 1025.8 2.4
30/08:00am 7.7 4.4 6.2 90 0.7 SW 13 19 7 10 1025.4 1025.6 2.4
30/07:30am 7.5 3.8 6.2 91 0.6 WSW 15 20 8 11 1025.1 1025.3 2.4
30/07:00am 7.4 3.7 6.1 91 0.6 WSW 15 20 8 11 1024.7 1024.9 2.4
30/06:30am 7.4 3.3 6.3 93 0.5 WSW 17 24 9 13 1024.4 1024.6 2.4
30/06:00am 7.4 3.7 6.3 93 0.5 SW 15 20 8 11 1024.2 1024.4 2.4
30/05:30am 7.3 3.2 6.4 94 0.4 SW 17 22 9 12 1024.1 1024.3 2.4
30/05:00am 7.3 2.9 6.4 94 0.4 WSW 19 26 10 14 1024.1 1024.3 2.4
30/04:50am 7.2 3.2 6.5 95 0.3 WSW 17 26 9 14 1024.1 1024.3 2.4
30/04:30am 7.3 3.3 6.6 95 0.3 WSW 17 26 9 14 1024.2 1024.4 2.4
30/04:00am 7.3 3.3 6.6 95 0.3 SW 17 24 9 13 1024.0 1024.2 2.4
30/03:30am 7.4 3.0 6.7 95 0.3 SW 19 26 10 14 1024.4 1024.6 2.4
30/03:00am 7.5 3.0 6.8 95 0.3 SW 20 28 11 15 1024.4 1024.6 2.4
30/02:30am 7.4 3.5 7.0 97 0.2 SW 17 26 9 14 1024.4 1024.6 2.4
30/02:15am 7.4 3.4 6.7 95 0.3 SW 17 24 9 13 1024.5 1024.7 2.4
30/02:00am 7.3 3.3 6.6 95 0.3 SW 17 24 9 13 1024.6 1024.8 2.4
30/01:30am 7.5 3.6 7.1 97 0.2 SW 17 20 9 11 1025.0 1025.2 2.4
30/01:00am 7.6 3.3 7.2 97 0.2 WSW 19 28 10 15 1025.2 1025.4 2.0
30/12:30am 7.7 3.5 7.3 97 0.2 SW 19 28 10 15 1025.4 1025.6 2.0
30/12:00am 7.8 3.9 6.9 94 0.4 SW 17 26 9 14 1025.6 1025.8 2.0
 
Date/Time
EST
Temp
°C
App
Temp
°C
Dew
Point
Rel
Hum
%
Delta-T
°C
Wind Press
QNH
hPa
Press
MSL
hPa
Rain
since 9 am
mm
Dir
 
Spd
km/h
Gust
km/h
Spd
kts
Gust
kts
29/11:30pm 7.8 3.9 6.9 94 0.4 SW 17 26 9 14 1025.7 1025.9 2.0
29/11:00pm 7.8 3.4 7.2 96 0.3 SW 20 28 11 15 1025.8 1026.0 2.0
29/10:30pm 8.1 3.3 7.2 94 0.4 SW 22 30 12 16 1025.9 1026.1 2.0
29/10:00pm 8.0 4.2 7.4 96 0.3 SW 17 22 9 12 1026.0 1026.2 2.0
29/09:41pm 8.0 4.2 7.6 97 0.2 SW 17 24 9 13 1026.0 1026.2 2.0
29/09:30pm 8.1 4.3 7.5 96 0.3 SW 17 22 9 12 1026.0 1026.2 1.6
29/09:00pm 8.1 5.1 7.7 97 0.2 SSW 13 19 7 10 1025.9 1026.1 1.4
29/08:30pm 8.2 4.0 7.6 96 0.3 SSW 19 26 10 14 1025.7 1025.9 1.0
29/08:19pm 8.4 4.2 7.6 95 0.4 SW 19 28 10 15 1025.8 1026.0 1.0
29/08:00pm 8.3 3.6 7.7 96 0.3 SW 22 32 12 17 1025.8 1026.0 1.0
29/07:49pm 8.6 3.8 7.3 91 0.6 SW 22 28 12 15 1025.8 1026.0 1.0
29/07:30pm 8.6 4.1 6.9 89 0.8 SW 20 28 11 15 1025.7 1025.9 1.0
29/07:00pm 9.1 4.5 6.7 85 1.1 SW 20 30 11 16 1025.7 1025.9 1.0
29/06:30pm 9.0 3.6 6.4 84 1.2 SW 24 33 13 18 1025.5 1025.7 1.0
29/06:00pm 9.4 4.7 6.1 80 1.5 SSW 20 28 11 15 1025.3 1025.5 1.0
29/05:30pm 9.8 3.7 6.4 79 1.6 SW 28 37 15 20 1025.1 1025.3 1.0
29/05:00pm 9.7 4.4 6.9 83 1.3 SW 24 35 13 19 1025.0 1025.2 1.0
29/04:30pm 10.1 3.9 6.2 77 1.8 SSW 28 37 15 20 1024.9 1025.1 1.0
29/04:00pm 9.6 2.6 6.1 79 1.6 SSW 32 41 17 22 1024.9 1025.1 1.0
29/03:30pm 10.3 5.7 6.7 78 1.7 SSW 20 32 11 17 1024.9 1025.1 1.0
29/03:16pm 9.3 3.8 7.4 88 0.9 SSW 26 33 14 18 1025.2 1025.4 1.0
29/03:00pm 9.2 4.4 7.3 88 0.9 SW 22 32 12 17 1025.1 1025.3 0.4
29/02:30pm 9.9 3.9 6.9 81 1.4 SSW 28 37 15 20 1025.1 1025.3 0.0
29/02:17pm 10.3 4.1 6.0 75 2.0 SW 28 35 15 19 1025.0 1025.2 0.0
29/02:00pm 10.2 4.0 6.3 77 1.8 SW 28 41 15 22 1025.2 1025.4 0.0
29/01:30pm 9.0 3.0 6.9 87 1.0 SW 28 35 15 19 1025.5 1025.7 0.0
29/01:11pm 9.9 4.3 5.5 74 2.0 SW 24 33 13 18 1025.6 1025.8 0.0
29/01:00pm 9.4 3.5 5.9 79 1.6 SW 26 35 14 19 1025.9 1026.1 0.0
29/12:30pm 8.5 2.4 6.8 89 0.8 SW 28 37 15 20 1026.4 1026.6 0.0
29/12:20pm 9.5 3.0 4.8 72 2.1 SW 28 35 15 19 1026.4 1026.6 0.0

Other Formats:

Comma delimited format used in spreadsheet applications
http://www.bom.gov.au/fwo/IDV60801/IDV60801.94866.axf

JavaScript Object Notation format (JSON) in row-major order
http://www.bom.gov.au/fwo/IDV60801/IDV60801.94866.json